sensor_id;sensor_type;location;lat;lon;timestamp;P1;durP1;ratioP1;P2;durP2;ratioP2
9900;SDS011;4989;48.772;9.154;2023-01-10T00:00:56;0.73;;;0.53;;
9900;SDS011;4989;48.772;9.154;2023-01-10T00:05:58;1.50;;;0.53;;
9900;SDS011;4989;48.772;9.154;2023-01-10T00:11:00;1.03;;;0.70;;
9900;SDS011;4989;48.772;9.154;2023-01-10T00:16:23;0.53;;;0.53;;
9900;SDS011;4989;48.772;9.154;2023-01-10T00:21:25;0.47;;;0.47;;
9900;SDS011;4989;48.772;9.154;2023-01-10T00:26:29;0.63;;;0.60;;
9900;SDS011;4989;48.772;9.154;2023-01-10T00:31:31;0.63;;;0.50;;
9900;SDS011;4989;48.772;9.154;2023-01-10T00:36:33;0.83;;;0.60;;
9900;SDS011;4989;48.772;9.154;2023-01-10T00:41:35;0.40;;;0.40;;
9900;SDS011;4989;48.772;9.154;2023-01-10T00:46:56;0.73;;;0.40;;
9900;SDS011;4989;48.772;9.154;2023-01-10T00:51:58;0.50;;;0.50;;
9900;SDS011;4989;48.772;9.154;2023-01-10T00:57:01;0.67;;;0.67;;
9900;SDS011;4989;48.772;9.154;2023-01-10T01:02:03;0.53;;;0.53;;
9900;SDS011;4989;48.772;9.154;2023-01-10T01:07:05;0.80;;;0.80;;
9900;SDS011;4989;48.772;9.154;2023-01-10T01:12:07;0.70;;;0.70;;
9900;SDS011;4989;48.772;9.154;2023-01-10T01:17:09;0.60;;;0.60;;
9900;SDS011;4989;48.772;9.154;2023-01-10T01:22:11;0.97;;;0.80;;
9900;SDS011;4989;48.772;9.154;2023-01-10T01:27:13;0.60;;;0.60;;
9900;SDS011;4989;48.772;9.154;2023-01-10T01:32:15;0.70;;;0.70;;
9900;SDS011;4989;48.772;9.154;2023-01-10T01:37:18;0.60;;;0.50;;
9900;SDS011;4989;48.772;9.154;2023-01-10T01:42:27;0.40;;;0.40;;
9900;SDS011;4989;48.772;9.154;2023-01-10T01:47:33;0.40;;;0.40;;
9900;SDS011;4989;48.772;9.154;2023-01-10T01:52:43;0.50;;;0.50;;
9900;SDS011;4989;48.772;9.154;2023-01-10T01:57:48;0.20;;;0.20;;
9900;SDS011;4989;48.772;9.154;2023-01-10T02:02:55;0.40;;;0.40;;
9900;SDS011;4989;48.772;9.154;2023-01-10T02:08:03;0.87;;;0.70;;
9900;SDS011;4989;48.772;9.154;2023-01-10T02:13:06;0.70;;;0.40;;
9900;SDS011;4989;48.772;9.154;2023-01-10T02:18:13;1.13;;;0.40;;
9900;SDS011;4989;48.772;9.154;2023-01-10T02:45:56;0.93;;;0.40;;
9900;SDS011;4989;48.772;9.154;2023-01-10T03:18:10;1.07;;;0.97;;
9900;SDS011;4989;48.772;9.154;2023-01-10T03:23:20;0.90;;;0.90;;
9900;SDS011;4989;48.772;9.154;2023-01-10T03:29:09;0.87;;;0.87;;
9900;SDS011;4989;48.772;9.154;2023-01-10T03:33:51;2.23;;;1.20;;
9900;SDS011;4989;48.772;9.154;2023-01-10T03:38:54;1.00;;;0.90;;
9900;SDS011;4989;48.772;9.154;2023-01-10T03:49:38;1.27;;;1.13;;
9900;SDS011;4989;48.772;9.154;2023-01-10T03:54:45;2.10;;;1.20;;
9900;SDS011;4989;48.772;9.154;2023-01-10T03:59:50;2.33;;;1.10;;
9900;SDS011;4989;48.772;9.154;2023-01-10T04:04:58;1.87;;;1.20;;
9900;SDS011;4989;48.772;9.154;2023-01-10T04:10:00;1.80;;;1.10;;
9900;SDS011;4989;48.772;9.154;2023-01-10T04:15:03;1.53;;;0.90;;
9900;SDS011;4989;48.772;9.154;2023-01-10T04:20:06;0.80;;;0.80;;
9900;SDS011;4989;48.772;9.154;2023-01-10T04:25:09;1.73;;;1.00;;
9900;SDS011;4989;48.772;9.154;2023-01-10T04:30:11;2.07;;;1.20;;
9900;SDS011;4989;48.772;9.154;2023-01-10T04:35:14;1.80;;;1.10;;
9900;SDS011;4989;48.772;9.154;2023-01-10T04:40:16;1.87;;;1.00;;
9900;SDS011;4989;48.772;9.154;2023-01-10T04:45:20;2.37;;;1.00;;
9900;SDS011;4989;48.772;9.154;2023-01-10T04:50:22;4.37;;;1.13;;
9900;SDS011;4989;48.772;9.154;2023-01-10T04:55:24;2.13;;;0.83;;
9900;SDS011;4989;48.772;9.154;2023-01-10T05:00:26;4.90;;;1.43;;
9900;SDS011;4989;48.772;9.154;2023-01-10T05:05:29;2.10;;;1.20;;
9900;SDS011;4989;48.772;9.154;2023-01-10T05:10:32;2.10;;;1.20;;
9900;SDS011;4989;48.772;9.154;2023-01-10T05:15:34;2.20;;;1.30;;
9900;SDS011;4989;48.772;9.154;2023-01-10T05:20:36;4.63;;;1.33;;
9900;SDS011;4989;48.772;9.154;2023-01-10T05:25:38;5.17;;;1.53;;
9900;SDS011;4989;48.772;9.154;2023-01-10T05:30:41;4.30;;;1.57;;
9900;SDS011;4989;48.772;9.154;2023-01-10T05:35:43;5.20;;;1.80;;
9900;SDS011;4989;48.772;9.154;2023-01-10T05:40:45;3.83;;;1.30;;
9900;SDS011;4989;48.772;9.154;2023-01-10T05:45:48;3.00;;;1.40;;
9900;SDS011;4989;48.772;9.154;2023-01-10T05:50:51;1.63;;;1.03;;
9900;SDS011;4989;48.772;9.154;2023-01-10T05:55:58;4.63;;;1.37;;
9900;SDS011;4989;48.772;9.154;2023-01-10T06:01:03;3.27;;;1.47;;
9900;SDS011;4989;48.772;9.154;2023-01-10T06:06:05;2.57;;;1.30;;
9900;SDS011;4989;48.772;9.154;2023-01-10T06:11:07;4.03;;;1.67;;
9900;SDS011;4989;48.772;9.154;2023-01-10T06:16:10;4.97;;;1.30;;
9900;SDS011;4989;48.772;9.154;2023-01-10T06:21:12;5.03;;;1.23;;
9900;SDS011;4989;48.772;9.154;2023-01-10T06:26:14;2.70;;;1.30;;
9900;SDS011;4989;48.772;9.154;2023-01-10T06:31:16;5.30;;;1.40;;
9900;SDS011;4989;48.772;9.154;2023-01-10T06:36:22;2.70;;;1.13;;
9900;SDS011;4989;48.772;9.154;2023-01-10T06:41:24;1.83;;;1.30;;
9900;SDS011;4989;48.772;9.154;2023-01-10T06:46:26;4.97;;;1.57;;
9900;SDS011;4989;48.772;9.154;2023-01-10T06:51:28;4.70;;;1.17;;
9900;SDS011;4989;48.772;9.154;2023-01-10T06:56:30;4.17;;;1.33;;
9900;SDS011;4989;48.772;9.154;2023-01-10T07:01:33;1.97;;;1.10;;
9900;SDS011;4989;48.772;9.154;2023-01-10T07:06:36;3.27;;;1.00;;
9900;SDS011;4989;48.772;9.154;2023-01-10T07:11:39;4.13;;;1.30;;
9900;SDS011;4989;48.772;9.154;2023-01-10T07:16:41;2.27;;;1.10;;
9900;SDS011;4989;48.772;9.154;2023-01-10T07:21:43;2.17;;;1.23;;
9900;SDS011;4989;48.772;9.154;2023-01-10T07:26:46;3.60;;;1.00;;
9900;SDS011;4989;48.772;9.154;2023-01-10T07:31:48;2.03;;;1.10;;
9900;SDS011;4989;48.772;9.154;2023-01-10T07:36:50;5.73;;;1.40;;
9900;SDS011;4989;48.772;9.154;2023-01-10T07:41:52;5.03;;;1.10;;
9900;SDS011;4989;48.772;9.154;2023-01-10T07:46:55;5.83;;;1.63;;
9900;SDS011;4989;48.772;9.154;2023-01-10T07:51:57;3.63;;;1.53;;
9900;SDS011;4989;48.772;9.154;2023-01-10T07:57:00;4.83;;;1.67;;
9900;SDS011;4989;48.772;9.154;2023-01-10T08:02:02;2.30;;;1.03;;
9900;SDS011;4989;48.772;9.154;2023-01-10T08:07:04;4.07;;;1.33;;
9900;SDS011;4989;48.772;9.154;2023-01-10T08:12:07;2.83;;;1.13;;
9900;SDS011;4989;48.772;9.154;2023-01-10T08:17:09;5.60;;;1.70;;
9900;SDS011;4989;48.772;9.154;2023-01-10T08:22:11;4.43;;;1.47;;
9900;SDS011;4989;48.772;9.154;2023-01-10T08:27:13;4.80;;;1.20;;
9900;SDS011;4989;48.772;9.154;2023-01-10T08:32:15;4.33;;;1.33;;
9900;SDS011;4989;48.772;9.154;2023-01-10T08:37:18;4.87;;;1.40;;
9900;SDS011;4989;48.772;9.154;2023-01-10T08:42:20;4.57;;;1.20;;
9900;SDS011;4989;48.772;9.154;2023-01-10T08:47:22;3.33;;;1.40;;
9900;SDS011;4989;48.772;9.154;2023-01-10T08:52:25;4.57;;;1.60;;
9900;SDS011;4989;48.772;9.154;2023-01-10T08:57:27;2.40;;;1.43;;
9900;SDS011;4989;48.772;9.154;2023-01-10T09:02:29;6.57;;;1.83;;
9900;SDS011;4989;48.772;9.154;2023-01-10T09:07:31;3.47;;;1.40;;
9900;SDS011;4989;48.772;9.154;2023-01-10T09:12:33;4.17;;;1.20;;
9900;SDS011;4989;48.772;9.154;2023-01-10T09:17:55;3.70;;;1.33;;
9900;SDS011;4989;48.772;9.154;2023-01-10T09:23:03;3.53;;;1.60;;
9900;SDS011;4989;48.772;9.154;2023-01-10T09:28:18;6.73;;;1.93;;
9900;SDS011;4989;48.772;9.154;2023-01-10T09:33:22;4.77;;;1.20;;
9900;SDS011;4989;48.772;9.154;2023-01-10T09:38:26;3.90;;;1.40;;
9900;SDS011;4989;48.772;9.154;2023-01-10T09:59:39;5.47;;;1.70;;
9900;SDS011;4989;48.772;9.154;2023-01-10T10:04:43;6.10;;;1.63;;
9900;SDS011;4989;48.772;9.154;2023-01-10T10:10:19;2.17;;;1.40;;
9900;SDS011;4989;48.772;9.154;2023-01-10T10:33:01;6.20;;;1.30;;
9900;SDS011;4989;48.772;9.154;2023-01-10T10:38:20;4.00;;;1.47;;
9900;SDS011;4989;48.772;9.154;2023-01-10T10:43:32;4.17;;;1.50;;
9900;SDS011;4989;48.772;9.154;2023-01-10T10:48:40;3.30;;;1.20;;
9900;SDS011;4989;48.772;9.154;2023-01-10T10:53:50;1.27;;;1.10;;
9900;SDS011;4989;48.772;9.154;2023-01-10T10:58:55;2.70;;;1.17;;
9900;SDS011;4989;48.772;9.154;2023-01-10T11:04:02;1.70;;;1.00;;
9900;SDS011;4989;48.772;9.154;2023-01-10T11:09:19;3.07;;;1.20;;
9900;SDS011;4989;48.772;9.154;2023-01-10T11:14:53;5.07;;;1.47;;
9900;SDS011;4989;48.772;9.154;2023-01-10T11:25:20;3.27;;;1.20;;
9900;SDS011;4989;48.772;9.154;2023-01-10T11:30:24;3.17;;;1.27;;
9900;SDS011;4989;48.772;9.154;2023-01-10T11:35:32;1.90;;;1.20;;
9900;SDS011;4989;48.772;9.154;2023-01-10T11:40:38;2.97;;;1.20;;
9900;SDS011;4989;48.772;9.154;2023-01-10T11:46:03;4.27;;;1.20;;
9900;SDS011;4989;48.772;9.154;2023-01-10T11:51:27;3.97;;;1.10;;
9900;SDS011;4989;48.772;9.154;2023-01-10T11:56:34;4.60;;;1.20;;
9900;SDS011;4989;48.772;9.154;2023-01-10T12:01:41;6.10;;;2.40;;
9900;SDS011;4989;48.772;9.154;2023-01-10T12:07:13;1.37;;;1.03;;
9900;SDS011;4989;48.772;9.154;2023-01-10T12:12:22;4.43;;;1.50;;
9900;SDS011;4989;48.772;9.154;2023-01-10T12:17:33;4.73;;;1.17;;
9900;SDS011;4989;48.772;9.154;2023-01-10T12:22:38;1.33;;;1.20;;
9900;SDS011;4989;48.772;9.154;2023-01-10T12:27:45;1.50;;;1.07;;
9900;SDS011;4989;48.772;9.154;2023-01-10T12:32:51;3.17;;;1.17;;
9900;SDS011;4989;48.772;9.154;2023-01-10T12:38:13;2.63;;;1.00;;
9900;SDS011;4989;48.772;9.154;2023-01-10T12:43:52;4.40;;;1.10;;
9900;SDS011;4989;48.772;9.154;2023-01-10T12:49:14;4.63;;;1.10;;
9900;SDS011;4989;48.772;9.154;2023-01-10T12:54:22;2.03;;;1.00;;
9900;SDS011;4989;48.772;9.154;2023-01-10T12:59:31;2.17;;;0.80;;
9900;SDS011;4989;48.772;9.154;2023-01-10T13:04:40;3.63;;;1.07;;
9900;SDS011;4989;48.772;9.154;2023-01-10T13:09:51;3.00;;;1.00;;
9900;SDS011;4989;48.772;9.154;2023-01-10T13:14:56;2.83;;;1.20;;
9900;SDS011;4989;48.772;9.154;2023-01-10T13:30:36;4.43;;;0.90;;
9900;SDS011;4989;48.772;9.154;2023-01-10T13:35:41;4.60;;;1.33;;
9900;SDS011;4989;48.772;9.154;2023-01-10T13:40:55;2.13;;;0.80;;
9900;SDS011;4989;48.772;9.154;2023-01-10T13:46:45;3.90;;;1.07;;
9900;SDS011;4989;48.772;9.154;2023-01-10T13:51:30;3.47;;;1.10;;
9900;SDS011;4989;48.772;9.154;2023-01-10T13:56:34;4.10;;;1.33;;
9900;SDS011;4989;48.772;9.154;2023-01-10T14:01:37;3.87;;;1.37;;
9900;SDS011;4989;48.772;9.154;2023-01-10T14:06:59;2.53;;;1.10;;
9900;SDS011;4989;48.772;9.154;2023-01-10T14:17:28;2.40;;;1.00;;
9900;SDS011;4989;48.772;9.154;2023-01-10T14:22:36;2.30;;;0.90;;
9900;SDS011;4989;48.772;9.154;2023-01-10T14:27:45;2.83;;;1.40;;
9900;SDS011;4989;48.772;9.154;2023-01-10T14:32:52;1.37;;;0.80;;
9900;SDS011;4989;48.772;9.154;2023-01-10T14:38:00;2.50;;;1.00;;
9900;SDS011;4989;48.772;9.154;2023-01-10T14:43:05;2.77;;;1.00;;
9900;SDS011;4989;48.772;9.154;2023-01-10T14:53:29;2.23;;;1.10;;
9900;SDS011;4989;48.772;9.154;2023-01-10T14:58:31;3.77;;;1.60;;
9900;SDS011;4989;48.772;9.154;2023-01-10T15:03:34;4.03;;;1.60;;
9900;SDS011;4989;48.772;9.154;2023-01-10T15:08:38;3.20;;;1.10;;
9900;SDS011;4989;48.772;9.154;2023-01-10T15:13:47;2.83;;;0.80;;
9900;SDS011;4989;48.772;9.154;2023-01-10T15:18:54;1.37;;;1.07;;
9900;SDS011;4989;48.772;9.154;2023-01-10T15:23:59;4.30;;;1.20;;
9900;SDS011;4989;48.772;9.154;2023-01-10T15:29:04;2.23;;;0.90;;
9900;SDS011;4989;48.772;9.154;2023-01-10T15:34:20;2.70;;;1.20;;
9900;SDS011;4989;48.772;9.154;2023-01-10T15:39:30;1.70;;;1.10;;
9900;SDS011;4989;48.772;9.154;2023-01-10T15:44:40;2.87;;;1.10;;
9900;SDS011;4989;48.772;9.154;2023-01-10T15:49:53;2.63;;;1.00;;
9900;SDS011;4989;48.772;9.154;2023-01-10T15:54:55;2.57;;;1.27;;
9900;SDS011;4989;48.772;9.154;2023-01-10T15:59:58;3.53;;;1.03;;
9900;SDS011;4989;48.772;9.154;2023-01-10T16:05:07;1.97;;;1.00;;
9900;SDS011;4989;48.772;9.154;2023-01-10T16:10:20;2.63;;;1.00;;
9900;SDS011;4989;48.772;9.154;2023-01-10T16:15:27;2.60;;;1.17;;
9900;SDS011;4989;48.772;9.154;2023-01-10T16:20:41;3.97;;;1.10;;
9900;SDS011;4989;48.772;9.154;2023-01-10T16:25:50;3.93;;;1.00;;
9900;SDS011;4989;48.772;9.154;2023-01-10T16:30:56;3.53;;;1.10;;
9900;SDS011;4989;48.772;9.154;2023-01-10T16:35:58;4.03;;;1.20;;
9900;SDS011;4989;48.772;9.154;2023-01-10T16:41:02;4.67;;;1.40;;
9900;SDS011;4989;48.772;9.154;2023-01-10T16:46:23;4.80;;;1.80;;
9900;SDS011;4989;48.772;9.154;2023-01-10T16:51:27;3.53;;;1.10;;
9900;SDS011;4989;48.772;9.154;2023-01-10T16:56:32;3.33;;;1.33;;
9900;SDS011;4989;48.772;9.154;2023-01-10T17:01:36;4.43;;;1.20;;
9900;SDS011;4989;48.772;9.154;2023-01-10T17:06:42;3.27;;;1.50;;
9900;SDS011;4989;48.772;9.154;2023-01-10T17:11:44;2.93;;;1.30;;
9900;SDS011;4989;48.772;9.154;2023-01-10T17:16:47;3.60;;;1.30;;
9900;SDS011;4989;48.772;9.154;2023-01-10T17:21:50;2.43;;;1.40;;
9900;SDS011;4989;48.772;9.154;2023-01-10T17:26:52;2.83;;;1.50;;
9900;SDS011;4989;48.772;9.154;2023-01-10T17:31:54;3.50;;;1.20;;
9900;SDS011;4989;48.772;9.154;2023-01-10T17:36:56;3.07;;;1.10;;
9900;SDS011;4989;48.772;9.154;2023-01-10T17:41:59;1.50;;;1.20;;
9900;SDS011;4989;48.772;9.154;2023-01-10T17:47:01;2.17;;;1.47;;
9900;SDS011;4989;48.772;9.154;2023-01-10T17:52:03;4.63;;;1.70;;
9900;SDS011;4989;48.772;9.154;2023-01-10T17:57:05;1.40;;;1.30;;
9900;SDS011;4989;48.772;9.154;2023-01-10T18:02:13;3.57;;;1.63;;
9900;SDS011;4989;48.772;9.154;2023-01-10T18:07:19;4.40;;;1.60;;
9900;SDS011;4989;48.772;9.154;2023-01-10T18:12:21;5.77;;;2.20;;
9900;SDS011;4989;48.772;9.154;2023-01-10T18:17:23;4.43;;;1.70;;
9900;SDS011;4989;48.772;9.154;2023-01-10T18:22:25;4.07;;;1.47;;
9900;SDS011;4989;48.772;9.154;2023-01-10T18:27:45;3.10;;;1.50;;
9900;SDS011;4989;48.772;9.154;2023-01-10T18:32:51;3.17;;;1.40;;
9900;SDS011;4989;48.772;9.154;2023-01-10T18:37:55;3.67;;;1.67;;
9900;SDS011;4989;48.772;9.154;2023-01-10T18:42:57;2.40;;;1.53;;
9900;SDS011;4989;48.772;9.154;2023-01-10T18:48:00;3.77;;;1.80;;
9900;SDS011;4989;48.772;9.154;2023-01-10T18:53:03;3.60;;;1.30;;
9900;SDS011;4989;48.772;9.154;2023-01-10T18:58:05;1.63;;;1.53;;
9900;SDS011;4989;48.772;9.154;2023-01-10T19:03:08;2.33;;;1.40;;
9900;SDS011;4989;48.772;9.154;2023-01-10T19:08:10;4.10;;;1.70;;
9900;SDS011;4989;48.772;9.154;2023-01-10T19:13:14;6.97;;;1.70;;
9900;SDS011;4989;48.772;9.154;2023-01-10T19:18:16;6.83;;;1.80;;
9900;SDS011;4989;48.772;9.154;2023-01-10T19:23:18;2.10;;;1.57;;
9900;SDS011;4989;48.772;9.154;2023-01-10T19:28:20;1.40;;;1.20;;
9900;SDS011;4989;48.772;9.154;2023-01-10T19:33:23;2.53;;;1.50;;
9900;SDS011;4989;48.772;9.154;2023-01-10T19:38:25;2.77;;;1.40;;
9900;SDS011;4989;48.772;9.154;2023-01-10T19:43:27;3.87;;;1.50;;
9900;SDS011;4989;48.772;9.154;2023-01-10T19:48:30;2.23;;;1.50;;
9900;SDS011;4989;48.772;9.154;2023-01-10T19:53:34;1.97;;;1.30;;
9900;SDS011;4989;48.772;9.154;2023-01-10T19:58:39;3.07;;;1.60;;
9900;SDS011;4989;48.772;9.154;2023-01-10T20:03:41;3.90;;;1.50;;
9900;SDS011;4989;48.772;9.154;2023-01-10T20:08:47;3.33;;;1.50;;
9900;SDS011;4989;48.772;9.154;2023-01-10T20:13:50;2.70;;;1.30;;
9900;SDS011;4989;48.772;9.154;2023-01-10T20:18:52;4.07;;;1.20;;
9900;SDS011;4989;48.772;9.154;2023-01-10T20:23:54;1.70;;;1.30;;
9900;SDS011;4989;48.772;9.154;2023-01-10T20:29:00;2.23;;;1.67;;
9900;SDS011;4989;48.772;9.154;2023-01-10T20:34:04;2.73;;;1.30;;
9900;SDS011;4989;48.772;9.154;2023-01-10T20:39:06;1.87;;;1.27;;
9900;SDS011;4989;48.772;9.154;2023-01-10T20:44:09;2.23;;;1.10;;
9900;SDS011;4989;48.772;9.154;2023-01-10T20:49:11;4.23;;;1.37;;
9900;SDS011;4989;48.772;9.154;2023-01-10T20:54:13;1.37;;;1.27;;
9900;SDS011;4989;48.772;9.154;2023-01-10T20:59:16;1.27;;;1.17;;
9900;SDS011;4989;48.772;9.154;2023-01-10T21:04:18;2.43;;;1.30;;
9900;SDS011;4989;48.772;9.154;2023-01-10T21:09:20;1.37;;;1.20;;
9900;SDS011;4989;48.772;9.154;2023-01-10T21:14:23;2.37;;;1.17;;
9900;SDS011;4989;48.772;9.154;2023-01-10T21:19:25;1.53;;;0.87;;
9900;SDS011;4989;48.772;9.154;2023-01-10T21:24:27;3.63;;;1.10;;
9900;SDS011;4989;48.772;9.154;2023-01-10T21:29:29;2.97;;;1.37;;
9900;SDS011;4989;48.772;9.154;2023-01-10T21:34:32;1.27;;;1.03;;
9900;SDS011;4989;48.772;9.154;2023-01-10T21:39:34;1.77;;;0.80;;
9900;SDS011;4989;48.772;9.154;2023-01-10T21:44:36;1.47;;;1.00;;
9900;SDS011;4989;48.772;9.154;2023-01-10T21:49:38;1.40;;;1.30;;
9900;SDS011;4989;48.772;9.154;2023-01-10T21:54:40;2.70;;;1.67;;
9900;SDS011;4989;48.772;9.154;2023-01-10T21:59:42;2.10;;;1.30;;
9900;SDS011;4989;48.772;9.154;2023-01-10T22:04:48;1.07;;;0.90;;
9900;SDS011;4989;48.772;9.154;2023-01-10T22:09:53;1.93;;;1.10;;
9900;SDS011;4989;48.772;9.154;2023-01-10T22:14:56;1.60;;;1.00;;
9900;SDS011;4989;48.772;9.154;2023-01-10T22:19:58;2.10;;;0.80;;
9900;SDS011;4989;48.772;9.154;2023-01-10T22:25:03;1.67;;;1.03;;
9900;SDS011;4989;48.772;9.154;2023-01-10T22:30:06;1.77;;;1.10;;
9900;SDS011;4989;48.772;9.154;2023-01-10T22:35:09;1.97;;;1.00;;
9900;SDS011;4989;48.772;9.154;2023-01-10T22:40:15;1.20;;;0.80;;
9900;SDS011;4989;48.772;9.154;2023-01-10T22:45:18;1.70;;;0.80;;
9900;SDS011;4989;48.772;9.154;2023-01-10T22:50:21;1.30;;;1.10;;
9900;SDS011;4989;48.772;9.154;2023-01-10T22:55:24;4.63;;;1.00;;
9900;SDS011;4989;48.772;9.154;2023-01-10T23:00:26;1.80;;;1.10;;
9900;SDS011;4989;48.772;9.154;2023-01-10T23:05:29;0.73;;;0.73;;
9900;SDS011;4989;48.772;9.154;2023-01-10T23:10:31;0.83;;;0.60;;
9900;SDS011;4989;48.772;9.154;2023-01-10T23:15:33;0.77;;;0.77;;
9900;SDS011;4989;48.772;9.154;2023-01-10T23:20:35;1.47;;;0.77;;
9900;SDS011;4989;48.772;9.154;2023-01-10T23:25:38;1.10;;;0.80;;
9900;SDS011;4989;48.772;9.154;2023-01-10T23:30:40;1.93;;;0.50;;
9900;SDS011;4989;48.772;9.154;2023-01-10T23:35:42;1.57;;;0.97;;
9900;SDS011;4989;48.772;9.154;2023-01-10T23:40:44;0.80;;;0.80;;
9900;SDS011;4989;48.772;9.154;2023-01-10T23:45:47;1.33;;;0.80;;
9900;SDS011;4989;48.772;9.154;2023-01-10T23:50:49;1.87;;;0.60;;
9900;SDS011;4989;48.772;9.154;2023-01-10T23:55:52;2.10;;;0.90;;
